Willmar, MN

9:28 AM CDT on October 31, 2014 (GMT -0500)
Olivia Regional | Change Station
CLOSE
Current Station
Airport
Location: Olivia,
Elevation: 1076 ft
Nearby Weather Stations

Elev 1076 ft 44.78 °N, 95.03 °W | Updated 15 minutes ago

Clear
Clear
27 °F
Feels Like 19 °F
N
7
Wind Variable Wind from North

Today
High -- | Low -- °F
--% Chance of Precip.
Yesterday
High -- | Low -- °F
Precip. -- in
7:57 AM 6:09 PM
First Quarter, 55% visible
Pressure 30.57 in
Visibility 10.0 miles
Clouds Clear
Windchill 19 °F
Dew Point 21 °F
Humidity 80%
Rainfall 0.00 in
Snow Depth Not available.
UV 1 out of 12
Pollen .10 out of 12
Air Quality Not available.
Flu Activity Not available.
METAR KOVL 311413Z AUTO 35006KT 10SM CLR M03/M06 A3057 RMK AO2

More Conditions Fewer Conditions

Pressure 30.57 in
Visibility 10.0 miles
Clouds Clear
Windchill 19 °F
Dew Point 21 °F
Humidity 80%
Rainfall 0.00 in
Snow Depth Not available.
UV 1 out of 12
Pollen .10 out of 12
Air Quality Not available.
Flu Activity Not available.
METAR KOVL 311413Z AUTO 35006KT 10SM CLR M03/M06 A3057 RMK AO2

More Conditions Fewer Conditions

10-Day Weather Forecast

Almanac

Astronomy

Oct. 31, 2014 Rise Set
Actual Time
Civil Twilight
Nautical Twilight
Astronomical Twilight
Moon
Length of Visible Light
Length of Day
Tomorrow will be .
, % of the Moon is Illuminated

Today's Extremes

State Highs State Lows

Community

WunderPhotos

Upload Photos

1,766,617 photos uploaded!

WunderBlogs® & News

Nearby

Air Quality

  Air Quality AQ Index Pollutant
Not available.

Snow Depth

Station Depth Elevation

Earthquake Activity

City Distance Mag. Time & Date
Minimum magnitude displayed is 2.5.

Coastal Water Temperatures

Place Temperature

Nearby Weather Stations